createdAt,value
2022-07-27T00:01:23.581Z,99.90
2022-07-27T00:03:52.024Z,99.90
2022-07-27T00:06:20.860Z,99.90
2022-07-27T00:08:49.507Z,99.90
2022-07-27T00:11:19.306Z,99.90
2022-07-27T00:13:48.153Z,99.90
2022-07-27T00:16:16.706Z,99.90
2022-07-27T00:18:45.441Z,99.90
2022-07-27T00:21:14.558Z,99.90
2022-07-27T00:23:43.666Z,99.90
2022-07-27T00:26:12.736Z,99.90
2022-07-27T00:28:42.851Z,99.90
2022-07-27T00:31:11.496Z,99.90
2022-07-27T00:33:39.944Z,99.90
2022-07-27T00:36:09.732Z,99.90
2022-07-27T00:38:38.276Z,99.90
2022-07-27T00:41:07.158Z,99.90
2022-07-27T00:46:30.375Z,99.90
2022-07-27T00:48:58.883Z,99.90
2022-07-27T00:51:27.952Z,99.90
2022-07-27T00:53:56.796Z,99.90
2022-07-27T00:56:26.117Z,99.90
2022-07-27T00:58:55.085Z,99.90
2022-07-27T01:01:23.957Z,99.90
2022-07-27T01:03:54.450Z,99.90
2022-07-27T01:06:27.254Z,99.90
2022-07-27T01:09:18.202Z,99.90
2022-07-27T01:11:47.680Z,99.90
2022-07-27T01:14:17.907Z,99.90
2022-07-27T01:16:46.737Z,99.90
2022-07-27T01:19:17.337Z,99.90
2022-07-27T01:21:47.578Z,99.90
2022-07-27T01:24:16.666Z,99.90
2022-07-27T01:26:46.175Z,99.90
2022-07-27T01:29:15.376Z,99.90
2022-07-27T01:31:44.512Z,99.90
2022-07-27T01:34:13.529Z,99.90
2022-07-27T01:36:42.047Z,99.90
2022-07-27T01:39:12.103Z,99.90
2022-07-27T01:41:40.875Z,99.90
2022-07-27T01:44:09.338Z,99.90
2022-07-27T01:46:38.480Z,99.90
2022-07-27T01:49:08.009Z,99.90
2022-07-27T01:51:36.658Z,99.90
2022-07-27T01:54:05.427Z,99.90
2022-07-27T01:56:35.281Z,99.90
2022-07-27T01:59:03.864Z,99.90
2022-07-27T02:01:32.506Z,99.90
2022-07-27T02:04:01.133Z,99.90
2022-07-27T02:06:29.769Z,99.90
2022-07-27T02:08:58.844Z,99.90
2022-07-27T02:11:44.948Z,99.90
2022-07-27T02:14:16.609Z,99.90
2022-07-27T02:16:45.023Z,99.90
2022-07-27T02:19:14.459Z,99.90
2022-07-27T02:21:43.069Z,99.90
2022-07-27T02:24:12.081Z,99.90
2022-07-27T02:26:40.498Z,99.90
2022-07-27T02:29:10.550Z,99.90
2022-07-27T02:31:40.653Z,99.90
2022-07-27T02:34:09.188Z,99.90
2022-07-27T02:36:37.430Z,99.90
2022-07-27T02:39:05.993Z,99.90
2022-07-27T02:41:34.490Z,99.90
2022-07-27T02:44:03.479Z,99.90
2022-07-27T02:46:32.441Z,99.90
2022-07-27T02:49:02.650Z,99.90
2022-07-27T02:51:31.494Z,99.90
2022-07-27T02:54:00.288Z,99.90
2022-07-27T02:56:29.236Z,99.90
2022-07-27T02:58:57.706Z,99.90
2022-07-27T03:01:26.195Z,99.90
2022-07-27T03:03:54.741Z,99.90
2022-07-27T03:06:25.516Z,99.90
2022-07-27T03:08:54.316Z,99.90
2022-07-27T03:11:22.851Z,99.90
2022-07-27T03:13:51.389Z,99.90
2022-07-27T03:16:20.673Z,99.90
2022-07-27T03:18:49.828Z,99.90
2022-07-27T03:21:18.442Z,99.90
2022-07-27T03:23:48.143Z,99.90
2022-07-27T03:26:18.171Z,99.90
2022-07-27T03:28:47.001Z,99.90
2022-07-27T03:31:15.785Z,99.90
2022-07-27T03:33:44.234Z,99.90
2022-07-27T03:36:12.931Z,99.90
2022-07-27T03:38:41.342Z,99.90
2022-07-27T03:41:11.222Z,99.90
2022-07-27T03:43:40.139Z,99.90
2022-07-27T03:46:09.094Z,99.90
2022-07-27T03:48:37.598Z,99.90
2022-07-27T03:51:06.190Z,99.90
2022-07-27T03:53:34.567Z,99.90
2022-07-27T03:56:02.945Z,99.90
2022-07-27T03:58:33.329Z,99.90
2022-07-27T04:01:01.783Z,99.90
2022-07-27T04:03:30.447Z,99.90
2022-07-27T04:05:58.787Z,99.90
2022-07-27T04:08:27.702Z,99.90
2022-07-27T04:10:56.004Z,99.90
2022-07-27T04:13:25.933Z,99.90
2022-07-27T04:15:57.966Z,99.90
2022-07-27T04:18:26.578Z,99.90
2022-07-27T04:20:55.039Z,99.90
2022-07-27T04:23:23.650Z,99.90
2022-07-27T04:25:52.833Z,99.90
2022-07-27T04:28:21.557Z,99.90
2022-07-27T04:30:50.418Z,99.90
2022-07-27T04:33:20.357Z,99.90
2022-07-27T04:35:49.044Z,99.90
2022-07-27T04:38:17.537Z,99.90
2022-07-27T04:40:45.888Z,99.90
2022-07-27T04:43:14.267Z,99.90
2022-07-27T04:45:43.366Z,99.90
2022-07-27T04:48:12.017Z,99.90
2022-07-27T04:50:43.246Z,99.90
2022-07-27T04:53:13.046Z,99.90
2022-07-27T04:55:44.450Z,99.90
2022-07-27T04:58:12.954Z,99.90
2022-07-27T05:00:41.807Z,99.90
2022-07-27T05:03:11.176Z,99.90
2022-07-27T05:05:39.994Z,99.90
2022-07-27T05:08:21.013Z,99.90
2022-07-27T05:10:49.511Z,99.90
2022-07-27T05:13:18.088Z,99.90
2022-07-27T05:15:54.532Z,99.90
2022-07-27T05:18:25.866Z,99.90
2022-07-27T05:20:54.443Z,99.90
2022-07-27T05:23:24.776Z,99.90
2022-07-27T05:25:53.155Z,99.90
2022-07-27T05:28:22.043Z,99.90
2022-07-27T05:30:50.515Z,99.90
2022-07-27T05:33:19.459Z,99.90
2022-07-27T05:35:47.765Z,99.90
2022-07-27T05:38:16.942Z,99.90
2022-07-27T05:40:47.510Z,99.90
2022-07-27T05:43:16.859Z,99.90
2022-07-27T05:45:45.365Z,99.90
2022-07-27T05:48:13.915Z,99.90
2022-07-27T05:50:42.783Z,99.90
2022-07-27T05:53:11.163Z,99.90
2022-07-27T05:55:58.011Z,99.90
2022-07-27T05:58:29.809Z,99.90
2022-07-27T06:00:58.684Z,99.90
2022-07-27T06:03:27.566Z,99.90
2022-07-27T06:06:16.704Z,99.90
2022-07-27T06:08:44.975Z,99.90
2022-07-27T06:11:14.767Z,99.90
2022-07-27T06:13:45.042Z,99.90
2022-07-27T06:16:14.155Z,99.90
2022-07-27T06:18:42.811Z,99.90
2022-07-27T06:21:11.594Z,99.90
2022-07-27T06:23:39.995Z,99.90
2022-07-27T06:26:09.672Z,99.90
2022-07-27T06:28:38.306Z,99.90
2022-07-27T06:31:08.201Z,99.90
2022-07-27T06:33:38.170Z,99.90
2022-07-27T06:36:08.420Z,99.90
2022-07-27T06:38:38.015Z,99.90
2022-07-27T06:41:06.513Z,99.90
2022-07-27T06:43:34.946Z,99.90
2022-07-27T06:46:04.031Z,99.90
2022-07-27T06:48:34.853Z,99.90
2022-07-27T06:51:03.288Z,99.90
2022-07-27T06:53:32.554Z,99.90
2022-07-27T06:56:05.783Z,99.90
2022-07-27T06:58:35.142Z,99.90
2022-07-27T07:01:03.891Z,99.90
2022-07-27T07:03:33.973Z,99.90
2022-07-27T07:06:02.646Z,99.90
2022-07-27T07:08:30.946Z,99.90
2022-07-27T07:10:59.663Z,99.90
2022-07-27T07:13:28.464Z,99.90
2022-07-27T07:15:57.580Z,99.90
2022-07-27T07:18:26.403Z,99.90
2022-07-27T07:20:56.269Z,99.90
2022-07-27T07:23:24.804Z,99.90
2022-07-27T07:25:53.831Z,99.90
2022-07-27T07:28:22.328Z,99.90
2022-07-27T07:30:51.565Z,99.90
2022-07-27T07:33:20.175Z,99.90
2022-07-27T07:36:12.535Z,99.90
2022-07-27T07:38:39.289Z,99.90
2022-07-27T07:41:08.392Z,99.90
2022-07-27T07:43:38.666Z,99.90
2022-07-27T07:46:10.806Z,99.90
2022-07-27T07:48:40.059Z,99.90
2022-07-27T07:51:09.091Z,99.90
2022-07-27T07:53:41.940Z,99.90
2022-07-27T07:56:10.459Z,99.90
2022-07-27T07:58:39.199Z,99.90
2022-07-27T08:01:07.774Z,99.90
2022-07-27T08:03:36.674Z,99.80
2022-07-27T08:06:06.473Z,97.70
2022-07-27T08:08:34.925Z,97.50
2022-07-27T08:11:04.599Z,98.50
2022-07-27T08:13:33.792Z,97.50
2022-07-27T08:16:02.161Z,96.50
2022-07-27T08:18:31.062Z,95.70
2022-07-27T08:20:59.432Z,95.80
2022-07-27T08:23:28.263Z,96.30
2022-07-27T08:25:56.653Z,97.90
2022-07-27T08:28:27.159Z,95.80
2022-07-27T08:30:56.057Z,95.70
2022-07-27T08:33:24.499Z,95.50
2022-07-27T08:35:52.939Z,94.80
2022-07-27T08:38:21.385Z,94.30
2022-07-27T08:40:51.269Z,94.80
2022-07-27T08:43:25.376Z,94.20
2022-07-27T08:45:58.210Z,92.90
2022-07-27T08:48:27.782Z,92.60
2022-07-27T08:50:56.859Z,92.60
2022-07-27T08:53:26.045Z,91.90
2022-07-27T08:56:05.093Z,91.40
2022-07-27T08:58:33.582Z,91.70
2022-07-27T09:01:03.334Z,91.10
2022-07-27T09:03:32.254Z,90.60
2022-07-27T09:06:00.858Z,90.20
2022-07-27T09:08:31.610Z,90.50
2022-07-27T09:11:03.460Z,90.10
2022-07-27T09:13:33.519Z,90.10
2022-07-27T09:16:21.423Z,90.10
2022-07-27T09:18:59.934Z,89.60
2022-07-27T09:21:28.895Z,89.60
2022-07-27T09:24:17.908Z,89.00
2022-07-27T09:27:03.238Z,88.20
2022-07-27T09:29:35.415Z,86.70
2022-07-27T09:32:15.591Z,85.80
2022-07-27T09:34:44.474Z,84.20
2022-07-27T09:37:12.985Z,82.30
2022-07-27T09:39:41.582Z,82.90
2022-07-27T09:43:03.812Z,81.80
2022-07-27T09:45:32.447Z,81.20
2022-07-27T09:48:15.476Z,81.10
2022-07-27T09:51:01.475Z,81.00
2022-07-27T09:53:43.601Z,80.50
2022-07-27T09:56:16.190Z,79.10
2022-07-27T09:58:47.879Z,77.50
2022-07-27T10:01:18.878Z,74.70
2022-07-27T10:03:51.384Z,73.10
2022-07-27T10:06:20.868Z,74.10
2022-07-27T10:08:55.285Z,73.90
2022-07-27T10:11:27.325Z,74.80
2022-07-27T10:13:57.245Z,71.80
2022-07-27T10:16:28.053Z,71.70
2022-07-27T10:19:09.806Z,70.60
2022-07-27T10:21:40.776Z,71.80
2022-07-27T10:24:12.516Z,72.10
2022-07-27T10:26:43.868Z,71.80
2022-07-27T10:29:18.828Z,72.00
2022-07-27T10:31:59.361Z,71.30
2022-07-27T10:34:38.439Z,71.80
2022-07-27T10:37:11.640Z,70.40
2022-07-27T10:39:43.137Z,68.30
2022-07-27T10:42:35.645Z,68.70
2022-07-27T10:45:09.307Z,68.90
2022-07-27T10:47:41.555Z,69.90
2022-07-27T10:50:31.959Z,69.30
2022-07-27T10:53:07.226Z,67.20
2022-07-27T10:55:46.052Z,67.80
2022-07-27T10:58:46.946Z,67.80
2022-07-27T11:01:20.260Z,68.10
2022-07-27T11:03:57.438Z,68.70
2022-07-27T11:06:44.983Z,68.70
2022-07-27T11:10:03.032Z,67.50
2022-07-27T11:12:06.740Z,67.40
2022-07-27T11:14:46.525Z,66.00
2022-07-27T11:20:05.809Z,70.10
2022-07-27T11:25:26.936Z,66.00
2022-07-27T11:27:55.518Z,65.40
2022-07-27T11:30:25.649Z,66.40
2022-07-27T11:32:54.361Z,65.80
2022-07-27T11:35:24.361Z,66.20
2022-07-27T11:38:02.794Z,67.20
2022-07-27T11:41:28.382Z,68.50
2022-07-27T11:43:42.081Z,65.80
2022-07-27T11:46:16.222Z,65.20
2022-07-27T11:49:09.275Z,64.90
2022-07-27T11:51:40.780Z,64.20
2022-07-27T11:54:12.491Z,62.80
2022-07-27T11:56:44.384Z,60.90
2022-07-27T11:59:16.422Z,59.70
2022-07-27T12:01:48.844Z,60.60
2022-07-27T12:04:21.757Z,62.30
2022-07-27T12:06:58.568Z,62.30
2022-07-27T12:09:35.789Z,63.20
2022-07-27T12:12:15.617Z,61.80
2022-07-27T12:14:47.302Z,61.50
2022-07-27T12:17:28.065Z,62.70
2022-07-27T12:20:02.924Z,61.70
2022-07-27T12:22:37.616Z,62.20
2022-07-27T12:25:16.007Z,62.20
2022-07-27T12:27:56.560Z,61.60
2022-07-27T12:30:33.422Z,62.30
2022-07-27T12:33:03.341Z,61.80
2022-07-27T12:35:38.799Z,62.40
2022-07-27T12:38:10.460Z,62.70
2022-07-27T12:40:47.791Z,62.90
2022-07-27T12:43:18.622Z,61.90
2022-07-27T12:45:48.509Z,61.00
2022-07-27T12:48:19.555Z,61.10
2022-07-27T12:50:50.393Z,60.70
2022-07-27T12:53:18.977Z,60.80
2022-07-27T12:55:49.173Z,60.80
2022-07-27T12:58:17.329Z,61.30
2022-07-27T13:00:45.830Z,62.30
2022-07-27T13:03:14.725Z,60.90
2022-07-27T13:05:43.521Z,60.90
2022-07-27T13:08:12.134Z,60.40
2022-07-27T13:10:45.592Z,59.50
2022-07-27T13:13:15.862Z,60.40
2022-07-27T13:15:44.524Z,59.70
2022-07-27T13:18:12.978Z,59.80
2022-07-27T13:20:42.432Z,58.50
2022-07-27T13:23:11.342Z,58.90
2022-07-27T13:25:43.358Z,58.50
2022-07-27T13:28:12.885Z,57.50
2022-07-27T13:30:42.641Z,57.40
2022-07-27T13:33:12.486Z,57.10
2022-07-27T13:35:40.934Z,56.70
2022-07-27T13:38:14.477Z,57.20
2022-07-27T13:40:44.899Z,58.90
2022-07-27T13:43:13.445Z,57.80
2022-07-27T13:45:43.754Z,58.00
2022-07-27T13:48:14.657Z,59.50
2022-07-27T13:50:43.754Z,58.30
2022-07-27T13:53:14.965Z,58.70
2022-07-27T13:55:45.074Z,57.30
2022-07-27T13:58:14.269Z,57.20
2022-07-27T14:00:44.034Z,56.00
2022-07-27T14:03:14.777Z,56.20
2022-07-27T14:05:49.147Z,56.10
2022-07-27T14:08:19.418Z,56.40
2022-07-27T14:10:48.045Z,56.90
2022-07-27T14:13:18.269Z,56.90
2022-07-27T14:15:54.258Z,57.90
2022-07-27T14:18:25.980Z,57.70
2022-07-27T14:20:55.090Z,57.10
2022-07-27T14:23:25.089Z,57.00
2022-07-27T14:25:54.361Z,56.90
2022-07-27T14:28:23.776Z,56.30
2022-07-27T14:30:53.952Z,56.10
2022-07-27T14:33:23.526Z,56.60
2022-07-27T14:35:52.839Z,56.50
2022-07-27T14:38:27.177Z,56.70
2022-07-27T14:41:01.223Z,57.00
2022-07-27T14:43:30.465Z,57.60
2022-07-27T14:46:01.197Z,57.60
2022-07-27T14:49:04.175Z,57.70
2022-07-27T14:51:18.635Z,57.40
2022-07-27T14:53:47.161Z,57.60
2022-07-27T14:56:16.400Z,58.00
2022-07-27T14:58:45.163Z,58.00
2022-07-27T15:01:16.934Z,57.20
2022-07-27T15:03:47.384Z,57.10
2022-07-27T15:06:15.813Z,56.30
2022-07-27T15:08:44.613Z,55.40
2022-07-27T15:11:13.018Z,55.50
2022-07-27T15:13:41.556Z,54.90
2022-07-27T15:16:11.843Z,55.40
2022-07-27T15:18:41.902Z,55.70
2022-07-27T15:21:12.837Z,55.80
2022-07-27T15:23:44.237Z,56.30
2022-07-27T15:26:13.429Z,56.10
2022-07-27T15:28:42.297Z,55.80
2022-07-27T15:31:11.236Z,56.30
2022-07-27T15:33:41.295Z,56.80
2022-07-27T15:36:10.051Z,56.80
2022-07-27T15:38:58.554Z,56.30
2022-07-27T15:41:27.203Z,56.40
2022-07-27T15:43:55.711Z,56.90
2022-07-27T15:46:27.408Z,56.50
2022-07-27T15:48:58.016Z,56.60
2022-07-27T15:51:26.580Z,56.20
2022-07-27T15:53:57.345Z,56.10
2022-07-27T15:56:26.425Z,56.00
2022-07-27T15:58:54.781Z,56.20
2022-07-27T16:01:23.242Z,55.70
2022-07-27T16:04:06.155Z,55.70
2022-07-27T16:06:38.849Z,55.50
2022-07-27T16:09:10.030Z,55.50
2022-07-27T16:11:39.169Z,55.70
2022-07-27T16:14:07.817Z,55.90
2022-07-27T16:16:36.604Z,56.00
2022-07-27T16:19:13.516Z,55.80
2022-07-27T16:21:55.250Z,55.70
2022-07-27T16:24:26.020Z,56.00
2022-07-27T16:26:54.917Z,56.10
2022-07-27T16:29:23.682Z,56.20
2022-07-27T16:31:57.888Z,55.20
2022-07-27T16:34:30.901Z,55.50
2022-07-27T16:36:59.636Z,56.40
2022-07-27T16:39:28.628Z,56.50
2022-07-27T16:41:58.548Z,56.10
2022-07-27T16:44:26.989Z,55.40
2022-07-27T16:46:55.846Z,55.00
2022-07-27T16:49:33.674Z,55.10
2022-07-27T16:52:07.887Z,55.30
2022-07-27T16:54:39.700Z,55.40
2022-07-27T16:57:11.170Z,57.20
2022-07-27T16:59:41.666Z,55.50
2022-07-27T17:02:10.773Z,56.20
2022-07-27T17:04:39.262Z,56.00
2022-07-27T17:07:12.669Z,55.20
2022-07-27T17:09:41.641Z,54.80
2022-07-27T17:12:10.326Z,55.00
2022-07-27T17:14:39.040Z,55.50
2022-07-27T17:17:08.419Z,55.50
2022-07-27T17:19:37.081Z,56.00
2022-07-27T17:22:06.774Z,55.80
2022-07-27T17:24:38.345Z,55.90
2022-07-27T17:27:07.029Z,56.30
2022-07-27T17:29:35.749Z,56.80
2022-07-27T17:32:04.360Z,56.60
2022-07-27T17:34:33.301Z,56.40
2022-07-27T17:37:02.446Z,56.10
2022-07-27T17:39:31.911Z,55.90
2022-07-27T17:42:01.768Z,56.00
2022-07-27T17:44:30.454Z,55.70
2022-07-27T17:47:00.900Z,55.20
2022-07-27T17:52:19.222Z,56.00
2022-07-27T17:54:48.535Z,55.40
2022-07-27T17:57:18.313Z,55.40
2022-07-27T17:59:47.279Z,55.10
2022-07-27T18:02:18.498Z,55.30
2022-07-27T18:04:47.857Z,54.70
2022-07-27T18:07:16.295Z,55.50
2022-07-27T18:09:44.643Z,54.90
2022-07-27T18:12:13.481Z,57.20
2022-07-27T18:15:07.981Z,55.70
2022-07-27T18:17:39.274Z,54.80
2022-07-27T18:20:11.574Z,54.80
2022-07-27T18:22:40.186Z,55.80
2022-07-27T18:25:10.181Z,56.00
2022-07-27T18:27:40.895Z,56.10
2022-07-27T18:30:12.318Z,55.90
2022-07-27T18:32:41.016Z,56.20
2022-07-27T18:35:11.626Z,56.50
2022-07-27T18:37:40.773Z,56.10
2022-07-27T18:40:10.933Z,56.30
2022-07-27T18:42:40.733Z,56.60
2022-07-27T18:45:11.300Z,56.90
2022-07-27T18:47:40.077Z,56.70
2022-07-27T18:50:09.313Z,56.90
2022-07-27T18:52:38.103Z,57.10
2022-07-27T18:55:07.465Z,57.50
2022-07-27T18:57:36.244Z,57.60
2022-07-27T19:00:08.097Z,57.30
2022-07-27T19:02:39.498Z,57.90
2022-07-27T19:05:10.420Z,57.60
2022-07-27T19:07:42.117Z,57.90
2022-07-27T19:10:11.653Z,58.10
2022-07-27T19:12:39.978Z,58.30
2022-07-27T19:15:09.798Z,58.70
2022-07-27T19:17:39.673Z,59.20
2022-07-27T19:20:10.368Z,59.70
2022-07-27T19:22:45.310Z,60.40
2022-07-27T19:25:15.217Z,62.10
2022-07-27T19:27:44.079Z,62.60
2022-07-27T19:30:13.277Z,62.40
2022-07-27T19:32:43.210Z,63.20
2022-07-27T19:35:12.621Z,63.60
2022-07-27T19:37:41.114Z,64.00
2022-07-27T19:40:41.581Z,65.10
2022-07-27T19:42:59.339Z,66.70
2022-07-27T19:45:27.972Z,66.70
2022-07-27T19:47:59.352Z,68.00
2022-07-27T19:50:28.399Z,69.10
2022-07-27T19:52:56.914Z,69.20
2022-07-27T19:55:25.803Z,70.20
2022-07-27T19:57:54.202Z,71.00
2022-07-27T20:00:22.900Z,71.20
2022-07-27T20:02:51.673Z,72.00
2022-07-27T20:05:21.737Z,72.10
2022-07-27T20:07:50.816Z,72.60
2022-07-27T20:10:21.526Z,72.80
2022-07-27T20:12:50.282Z,73.10
2022-07-27T20:15:18.890Z,73.40
2022-07-27T20:17:51.526Z,73.70
2022-07-27T20:20:21.312Z,74.20
2022-07-27T20:22:50.226Z,74.40
2022-07-27T20:25:19.516Z,75.00
2022-07-27T20:27:48.898Z,75.10
2022-07-27T20:30:19.959Z,75.40
2022-07-27T20:32:49.394Z,75.50
2022-07-27T20:35:18.793Z,76.70
2022-07-27T20:37:48.802Z,75.70
2022-07-27T20:40:18.352Z,76.10
2022-07-27T20:42:47.068Z,76.50
2022-07-27T20:45:15.746Z,76.80
2022-07-27T20:47:44.442Z,76.90
2022-07-27T20:50:15.102Z,77.00
2022-07-27T20:52:44.176Z,77.10
2022-07-27T20:55:13.945Z,77.50
2022-07-27T20:57:43.106Z,77.60
2022-07-27T21:00:12.616Z,78.10
2022-07-27T21:02:41.486Z,78.30
2022-07-27T21:05:10.367Z,78.60
2022-07-27T21:07:38.970Z,78.70
2022-07-27T21:10:08.521Z,79.00
2022-07-27T21:12:38.961Z,79.10
2022-07-27T21:15:13.080Z,79.70
2022-07-27T21:17:42.386Z,79.90
2022-07-27T21:20:11.956Z,79.60
2022-07-27T21:22:40.399Z,79.80
2022-07-27T21:25:09.783Z,80.30
2022-07-27T21:27:40.657Z,80.40
2022-07-27T21:30:11.833Z,80.60
2022-07-27T21:32:40.756Z,80.80
2022-07-27T21:35:10.824Z,81.00
2022-07-27T21:37:39.341Z,83.30
2022-07-27T21:40:08.769Z,84.40
2022-07-27T21:42:39.078Z,84.90
2022-07-27T21:45:09.927Z,84.80
2022-07-27T21:47:39.033Z,86.20
2022-07-27T21:50:08.332Z,85.80
2022-07-27T21:52:37.109Z,84.40
2022-07-27T21:55:06.729Z,87.50
2022-07-27T21:57:35.527Z,87.00
2022-07-27T22:00:04.391Z,87.10
2022-07-27T22:02:34.742Z,86.80
2022-07-27T22:05:03.220Z,85.60
2022-07-27T22:07:32.033Z,85.70
2022-07-27T22:10:00.395Z,86.30
2022-07-27T22:12:29.344Z,85.10
2022-07-27T22:14:57.721Z,85.00
2022-07-27T22:17:26.661Z,85.10
2022-07-27T22:19:56.451Z,88.00
2022-07-27T22:22:26.320Z,86.30
2022-07-27T22:24:54.712Z,87.20
2022-07-27T22:27:23.429Z,86.30
2022-07-27T22:29:52.490Z,86.30
2022-07-27T22:32:22.931Z,89.10
2022-07-27T22:34:52.014Z,87.70
2022-07-27T22:37:23.853Z,89.30
2022-07-27T22:39:52.547Z,87.40
2022-07-27T22:42:21.045Z,90.00
2022-07-27T22:44:49.692Z,87.40
2022-07-27T22:47:18.322Z,87.10
2022-07-27T22:49:47.431Z,87.80
2022-07-27T22:52:16.243Z,88.10
2022-07-27T22:54:46.191Z,88.10
2022-07-27T22:57:15.132Z,88.60
2022-07-27T22:59:43.613Z,89.30
2022-07-27T23:02:12.088Z,89.60
2022-07-27T23:04:40.498Z,90.00
2022-07-27T23:07:08.989Z,90.10
2022-07-27T23:09:38.166Z,90.40
2022-07-27T23:12:08.453Z,90.90
2022-07-27T23:14:37.101Z,90.70
2022-07-27T23:17:05.401Z,90.80
2022-07-27T23:19:33.864Z,90.70
2022-07-27T23:22:02.221Z,90.90
2022-07-27T23:24:31.232Z,91.30
2022-07-27T23:26:59.797Z,91.20
2022-07-27T23:29:29.921Z,91.20
2022-07-27T23:31:58.478Z,91.80
2022-07-27T23:34:29.200Z,91.90
2022-07-27T23:36:57.964Z,91.90
2022-07-27T23:39:28.805Z,92.20
2022-07-27T23:41:57.597Z,92.30
2022-07-27T23:44:25.948Z,92.70
2022-07-27T23:46:56.269Z,92.70
2022-07-27T23:49:24.923Z,93.10
2022-07-27T23:51:53.286Z,93.30
2022-07-27T23:54:22.189Z,93.50
2022-07-27T23:56:50.857Z,93.60
2022-07-27T23:59:19.202Z,93.60
